Campanya meteocatpedra

Dades EMA Oliana

?
?
Resum diari 22:30 TU
Dades diàries de l'estació meteorològica
Temperatura mitjana 22.2 °C
Temperatura màxima 31.2 °C 14:03 TU
Temperatura mínima 11.3 °C 4:28 TU
Humitat relativa mitjana 57%
Precipitació acumulada 0.0 mm
Ratxa màxima del vent (2 m) 22.0 km/h - 197º 13:07 TU
Irradiació solar global 29.8 MJ/m2

El tram horari està expressat en Temps Universal (TU). Cal sumar una hora en horari d'hivern i dues en horari d'estiu per passar a l'hora oficial.

Oliana

Metadades estació meteorol´gica
Municipi Oliana
Comarca Alt Urgell
Altitud 490 m
Data alta 22.06.2000
Estat actual Operativa
Dades de període
Període
TU
TM
°C
TX
°C
TN
°C
HRM
%
PPT
mm
VVM (2 m)
km/h
DVM (2 m)
graus
VVX (2 m)
km/h
RS
W/m2
00:00 - 00:30 14.4 14.6 14.2 86 0.0 1.4 101 4.0 0
00:30 - 01:00 13.8 14.2 13.3 90 0.0 1.4 65 4.0 0
01:00 - 01:30 13.2 13.5 12.8 93 0.0 1.1 66 4.7 0
01:30 - 02:00 12.6 12.8 12.5 95 0.0 1.4 65 4.7 0
02:00 - 02:30 12.2 12.5 11.8 97 0.0 1.8 116 5.8 0
02:30 - 03:00 12.5 13.4 12.0 98 0.0 2.9 114 11.2 0
03:00 - 03:30 12.3 12.9 11.9 98 0.0 1.1 192 4.7 0
03:30 - 04:00 12.1 12.2 11.9 99 0.0 1.8 158 6.1 0
04:00 - 04:30 11.6 11.9 11.3 99 0.0 1.8 207 6.5 0
04:30 - 05:00 11.6 11.8 11.4 100 0.0 2.2 232 11.5 12
05:00 - 05:30 12.2 14.7 11.6 98 0.0 2.5 204 13.0 76
05:30 - 06:00 16.7 17.7 14.3 68 0.0 5.0 0 19.4 155
06:00 - 06:30 18.3 18.9 17.8 58 0.0 5.4 356 19.8 252
06:30 - 07:00 19.0 19.4 18.8 54 0.0 6.8 360 20.5 353
07:00 - 07:30 20.3 21.2 19.4 50 0.0 5.8 20 19.4 451
07:30 - 08:00 22.1 22.8 21.2 46 0.0 4.0 6 16.2 542
08:00 - 08:30 23.2 24.8 22.6 43 0.0 4.7 345 20.5 630
08:30 - 09:00 25.2 25.5 24.6 39 0.0 2.9 331 10.1 709
09:00 - 09:30 25.8 26.4 24.9 38 0.0 3.2 208 9.4 777
09:30 - 10:00 26.8 27.2 26.2 38 0.0 3.6 204 9.7 836
10:00 - 10:30 27.3 27.6 26.9 39 0.0 5.0 198 10.4 887
10:30 - 11:00 28.0 28.8 27.3 38 0.0 5.8 180 13.7 926
11:00 - 11:30 28.2 28.7 27.9 37 0.0 6.1 193 13.7 945
11:30 - 12:00 29.0 29.4 28.5 37 0.0 7.2 179 15.5 951
12:00 - 12:30 29.7 30.3 29.1 36 0.0 6.5 187 13.7 951
12:30 - 13:00 30.2 30.8 29.8 36 0.0 7.2 182 17.3 945
13:00 - 13:30 30.1 30.2 29.7 35 0.0 9.0 187 22.0 915
13:30 - 14:00 30.4 30.8 29.9 35 0.0 7.9 198 19.8 878
14:00 - 14:30 30.7 31.2 30.4 33 0.0 7.2 196 14.8 821
14:30 - 15:00 30.7 30.9 30.5 33 0.0 7.2 185 16.2 749
15:00 - 15:30 30.4 30.6 30.2 34 0.0 6.5 210 16.2 676
15:30 - 16:00 30.3 31.0 29.9 34 0.0 6.8 199 13.7 586
16:00 - 16:30 29.9 30.2 29.7 35 0.0 7.9 194 15.8 490
16:30 - 17:00 29.6 29.8 29.4 36 0.0 6.8 192 13.3 398
17:00 - 17:30 29.2 29.5 29.0 37 0.0 6.5 193 12.6 303
17:30 - 18:00 28.8 29.0 28.7 38 0.0 4.3 220 9.7 222
18:00 - 18:30 27.9 28.7 26.7 42 0.0 3.2 219 7.6 134
18:30 - 19:00 25.6 26.6 25.2 47 0.0 3.6 127 9.0 18
19:00 - 19:30 24.5 25.4 23.8 45 0.0 5.4 142 16.6 2
19:30 - 20:00 22.4 23.7 21.2 52 0.0 1.8 68 5.4 0
20:00 - 20:30 20.1 20.9 19.7 60 0.0 1.8 76 6.5 0
20:30 - 21:00 19.5 20.0 19.0 61 0.0 1.8 72 5.0 0
21:00 - 21:30 18.8 19.2 18.5 63 0.0 1.8 78 4.7 0
21:30 - 22:00 18.3 18.9 17.7 65 0.0 1.8 64 4.0 0
22:00 - 22:30 17.1 17.6 16.3 70 0.0 1.4 68 4.7 0
22:30 - 23:00 16.4 16.6 15.9 73 0.0 1.8 77 4.0 0

Les dades en taronja només han passat un control de qualitat automàtic. Resta pendent la seva validació definitiva.